Time;durP1;ratioP1;P1;durP2;ratioP2;P2;SDS_P1;SDS_P2;PMS_P1;PMS_P2;Temp;Humidity;BMP_temperature;BMP_pressure;BME280_temperature;BME280_humidity;BME280_pressure;Samples;Min_cycle;Max_cycle;Signal;HPM_P1;HPM_P2
2021/10/14 00:01:50;;;;;;;16.38;11.07;;;6.40;99.90;;;;;;4947737;29;20500;-73
2021/10/14 00:04:15;;;;;;;15.18;11.80;;;6.30;99.90;;;;;;4947557;29;20062;-73
2021/10/14 00:06:43;;;;;;;21.08;12.40;;;6.30;99.90;;;;;;4941244;29;20027;-73
2021/10/14 00:09:08;;;;;;;20.50;12.20;;;6.40;99.90;;;;;;4929087;29;20114;-74
2021/10/14 00:11:34;;;;;;;19.10;12.82;;;6.40;99.90;;;;;;4953996;29;20061;-74
2021/10/14 00:14:00;;;;;;;17.55;13.05;;;6.40;99.90;;;;;;4954061;29;20030;-73
2021/10/14 00:16:25;;;;;;;17.20;12.27;;;6.40;99.90;;;;;;4947430;29;20110;-72
2021/10/14 00:18:51;;;;;;;17.38;13.32;;;6.40;99.90;;;;;;4953503;29;20042;-73
2021/10/14 00:21:17;;;;;;;21.98;12.73;;;6.30;99.90;;;;;;4940607;28;20064;-72
2021/10/14 00:23:42;;;;;;;20.20;12.82;;;6.20;99.90;;;;;;4940896;29;20066;-72
2021/10/14 00:26:08;;;;;;;17.15;12.65;;;6.30;99.90;;;;;;4947716;29;20131;-74
2021/10/14 00:28:33;;;;;;;21.45;14.68;;;6.30;99.90;;;;;;4946725;29;20031;-74
2021/10/14 00:30:59;;;;;;;22.73;13.50;;;6.30;99.90;;;;;;4923813;29;20390;-72
2021/10/14 00:33:25;;;;;;;20.35;13.70;;;6.30;99.90;;;;;;4941621;29;20115;-74
2021/10/14 00:35:50;;;;;;;20.73;14.55;;;6.40;99.90;;;;;;4947477;29;20487;-74
2021/10/14 00:38:16;;;;;;;20.40;13.85;;;6.40;99.90;;;;;;4946470;29;20097;-74
2021/10/14 00:40:43;;;;;;;20.42;13.93;;;6.40;99.90;;;;;;4936364;29;20182;-73
2021/10/14 00:43:09;;;;;;;21.40;13.88;;;6.40;99.90;;;;;;4941731;29;20070;-74
2021/10/14 00:45:34;;;;;;;23.98;14.85;;;6.40;99.90;;;;;;4930232;29;20051;-73
2021/10/14 00:48:00;;;;;;;20.15;13.73;;;6.40;99.90;;;;;;4928922;29;20429;-74
2021/10/14 00:50:26;;;;;;;21.60;13.90;;;6.50;99.90;;;;;;4940687;29;20027;-73
2021/10/14 00:52:52;;;;;;;20.30;14.80;;;6.50;99.90;;;;;;4941962;29;20510;-74
2021/10/14 00:55:19;;;;;;;21.63;14.63;;;6.40;99.90;;;;;;4930219;29;20039;-74
2021/10/14 00:57:44;;;;;;;21.48;14.48;;;6.40;99.90;;;;;;4945813;29;20020;-73
2021/10/14 01:00:10;;;;;;;25.67;15.63;;;6.40;99.90;;;;;;4940677;29;20035;-74
2021/10/14 01:02:36;;;;;;;19.70;14.30;;;6.40;99.90;;;;;;4924802;29;20024;-74
2021/10/14 01:05:03;;;;;;;24.02;15.98;;;6.40;99.90;;;;;;4922983;29;20019;-72
2021/10/14 01:07:29;;;;;;;23.40;15.15;;;6.30;99.90;;;;;;4936895;29;20393;-72
2021/10/14 01:09:55;;;;;;;28.05;15.73;;;6.30;99.90;;;;;;4946683;29;20030;-72
2021/10/14 01:12:22;;;;;;;22.17;14.75;;;6.30;99.90;;;;;;4936259;29;20023;-72
2021/10/14 01:14:47;;;;;;;24.75;15.35;;;6.30;99.90;;;;;;4939447;29;20114;-71
2021/10/14 01:17:13;;;;;;;20.67;15.30;;;6.20;99.90;;;;;;4954168;29;20431;-71
2021/10/14 01:19:43;;;;;;;25.33;16.90;;;6.20;99.90;;;;;;4934722;29;20027;-72
2021/10/14 01:22:09;;;;;;;24.02;15.65;;;6.20;99.90;;;;;;4947654;29;20035;-72
2021/10/14 01:24:35;;;;;;;28.33;16.88;;;6.10;99.90;;;;;;4941738;29;20106;-72
2021/10/14 01:27:03;;;;;;;26.25;16.38;;;6.20;99.90;;;;;;4940705;29;20485;-72
2021/10/14 01:29:29;;;;;;;27.45;16.45;;;6.20;99.90;;;;;;4936484;29;20089;-72
2021/10/14 01:31:54;;;;;;;24.48;15.52;;;6.20;99.90;;;;;;4923418;29;20032;-72
2021/10/14 01:34:20;;;;;;;25.77;16.20;;;6.20;99.90;;;;;;4949430;28;20036;-72
2021/10/14 01:36:45;;;;;;;22.95;16.08;;;6.20;99.90;;;;;;4921026;29;20024;-72
2021/10/14 01:39:11;;;;;;;26.95;16.83;;;6.20;99.90;;;;;;4933194;29;20394;-72
2021/10/14 01:41:36;;;;;;;23.05;16.58;;;6.10;99.90;;;;;;4937835;29;20060;-75
2021/10/14 01:44:02;;;;;;;26.92;17.15;;;6.20;99.90;;;;;;4937833;29;20028;-74
2021/10/14 01:46:27;;;;;;;25.60;16.85;;;6.20;99.90;;;;;;4937413;29;20383;-74
2021/10/14 01:48:53;;;;;;;25.02;16.02;;;6.20;99.90;;;;;;4943563;29;20031;-74
2021/10/14 01:51:18;;;;;;;21.92;16.27;;;6.20;99.90;;;;;;4956267;29;20027;-75
2021/10/14 01:53:44;;;;;;;30.50;17.40;;;6.10;99.90;;;;;;4926306;29;20110;-74
2021/10/14 01:56:10;;;;;;;24.00;16.60;;;6.10;99.90;;;;;;4927240;29;20486;-74
2021/10/14 01:58:35;;;;;;;26.92;18.05;;;6.10;99.90;;;;;;4932798;29;20023;-74
2021/10/14 02:01:01;;;;;;;28.20;17.45;;;6.20;99.90;;;;;;4919914;29;20644;-75
2021/10/14 02:03:26;;;;;;;25.95;17.02;;;6.10;99.90;;;;;;4949920;29;20036;-75
2021/10/14 02:05:52;;;;;;;27.35;17.52;;;6.20;99.90;;;;;;4920109;29;20038;-75
2021/10/14 02:08:17;;;;;;;28.33;17.17;;;6.20;99.90;;;;;;4949834;29;20127;-74
2021/10/14 02:10:43;;;;;;;26.30;17.63;;;6.20;99.90;;;;;;4936991;29;20063;-73
2021/10/14 02:13:09;;;;;;;25.38;16.67;;;6.20;99.90;;;;;;4950118;29;20114;-73
2021/10/14 02:15:34;;;;;;;25.55;17.52;;;6.30;99.90;;;;;;4950369;29;20074;-72
2021/10/14 02:18:00;;;;;;;32.53;18.85;;;6.20;99.90;;;;;;4926705;29;20032;-72
2021/10/14 02:20:26;;;;;;;32.53;17.92;;;6.30;99.90;;;;;;4956644;29;20034;-72
2021/10/14 02:22:51;;;;;;;26.75;18.63;;;6.30;99.90;;;;;;4956009;29;20474;-72
2021/10/14 02:25:18;;;;;;;28.08;18.73;;;6.30;99.90;;;;;;4944007;29;20028;-72
2021/10/14 02:27:44;;;;;;;26.73;18.73;;;6.30;99.90;;;;;;4942439;29;20031;-73
2021/10/14 02:30:10;;;;;;;30.17;19.00;;;6.30;99.90;;;;;;4938530;29;20470;-73
2021/10/14 02:32:37;;;;;;;31.52;19.80;;;6.40;99.90;;;;;;4925338;29;20074;-73
2021/10/14 02:35:03;;;;;;;31.15;19.33;;;6.40;99.90;;;;;;4943572;29;20038;-73
2021/10/14 02:37:29;;;;;;;32.30;19.38;;;6.40;99.90;;;;;;4933303;29;20036;-72
2021/10/14 02:39:54;;;;;;;29.35;19.38;;;6.40;99.90;;;;;;4932678;29;20031;-73
2021/10/14 02:42:20;;;;;;;32.72;19.90;;;6.40;99.90;;;;;;4932086;29;20027;-73
2021/10/14 02:44:46;;;;;;;33.33;20.13;;;6.40;99.90;;;;;;4948214;28;20027;-74
2021/10/14 02:47:11;;;;;;;32.83;20.50;;;6.50;99.90;;;;;;4925331;29;20031;-73
2021/10/14 02:49:37;;;;;;;30.83;19.58;;;6.40;99.90;;;;;;4938124;29;20031;-74
2021/10/14 02:52:03;;;;;;;31.33;19.55;;;6.40;99.90;;;;;;4938213;29;20027;-73
2021/10/14 02:54:30;;;;;;;33.97;21.58;;;6.40;99.90;;;;;;4955316;29;20430;-73
2021/10/14 02:56:55;;;;;;;32.85;20.83;;;6.40;99.90;;;;;;4942389;29;20023;-73
2021/10/14 02:59:20;;;;;;;33.38;20.90;;;6.40;99.90;;;;;;4925279;29;20067;-73
2021/10/14 03:01:46;;;;;;;30.80;19.48;;;6.50;99.90;;;;;;4948617;29;20071;-73
2021/10/14 03:04:12;;;;;;;33.90;20.27;;;6.50;99.90;;;;;;4936135;29;20039;-73
2021/10/14 03:06:37;;;;;;;35.33;21.55;;;6.50;99.90;;;;;;4942300;29;20023;-72
2021/10/14 03:09:03;;;;;;;32.85;20.90;;;6.50;99.90;;;;;;4947096;29;20469;-73
2021/10/14 03:11:29;;;;;;;31.08;20.60;;;6.50;99.90;;;;;;4954715;29;20037;-74
2021/10/14 03:13:55;;;;;;;33.35;20.35;;;6.50;99.90;;;;;;4942609;29;20027;-74
2021/10/14 03:16:20;;;;;;;35.60;21.00;;;6.60;99.90;;;;;;4948585;29;20079;-74
2021/10/14 03:18:46;;;;;;;34.60;21.20;;;6.60;99.90;;;;;;4947531;29;20470;-74
2021/10/14 03:21:11;;;;;;;34.15;21.77;;;6.50;99.90;;;;;;4924529;29;20027;-74
2021/10/14 03:23:37;;;;;;;30.95;20.08;;;6.50;99.90;;;;;;4925868;29;20031;-74
2021/10/14 03:26:04;;;;;;;37.72;21.83;;;6.50;99.90;;;;;;4931163;29;20035;-75
2021/10/14 03:28:30;;;;;;;34.30;21.65;;;6.50;99.90;;;;;;4947081;29;20742;-75
2021/10/14 03:30:56;;;;;;;37.67;21.25;;;6.50;99.90;;;;;;4954478;29;20023;-74
2021/10/14 03:33:21;;;;;;;37.33;22.70;;;6.50;99.90;;;;;;4925780;29;20471;-74
2021/10/14 03:35:47;;;;;;;36.50;22.38;;;6.50;99.90;;;;;;4948409;29;20030;-74
2021/10/14 03:38:13;;;;;;;36.97;22.48;;;6.50;99.90;;;;;;4946731;29;20106;-74
2021/10/14 03:40:38;;;;;;;37.55;22.52;;;6.50;99.90;;;;;;4941563;29;20031;-75
2021/10/14 03:43:04;;;;;;;35.08;21.88;;;6.50;99.90;;;;;;4943169;29;20024;-73
2021/10/14 03:45:29;;;;;;;39.90;22.80;;;6.50;99.90;;;;;;4930977;29;20024;-74
2021/10/14 03:47:55;;;;;;;39.53;23.55;;;6.50;99.90;;;;;;4935100;29;20042;-74
2021/10/14 03:50:20;;;;;;;43.05;24.08;;;6.50;99.90;;;;;;4947889;29;20462;-74
2021/10/14 03:52:46;;;;;;;41.63;23.60;;;6.50;99.90;;;;;;4946059;29;20148;-74
2021/10/14 03:55:11;;;;;;;40.63;23.75;;;6.50;99.90;;;;;;4941247;29;20031;-74
2021/10/14 03:57:37;;;;;;;38.70;22.95;;;6.60;99.90;;;;;;4943556;28;20057;-74
2021/10/14 04:00:07;;;;;;;37.47;22.65;;;6.60;99.90;;;;;;4952000;29;20041;-75
2021/10/14 04:02:33;;;;;;;44.85;25.13;;;6.40;99.90;;;;;;4954043;29;20065;-75
2021/10/14 04:04:59;;;;;;;45.00;24.80;;;6.60;99.90;;;;;;4941278;29;20059;-75
2021/10/14 04:07:24;;;;;;;52.72;27.08;;;6.50;99.90;;;;;;4936824;29;20031;-74
2021/10/14 04:09:50;;;;;;;42.90;24.50;;;6.50;99.90;;;;;;4936834;29;20082;-75
2021/10/14 04:12:15;;;;;;;43.05;24.83;;;6.40;99.90;;;;;;4924464;29;20031;-74
2021/10/14 04:14:41;;;;;;;45.28;25.80;;;6.40;99.90;;;;;;4947554;29;20052;-73
2021/10/14 04:17:06;;;;;;;50.88;25.90;;;6.40;99.90;;;;;;4946871;28;20492;-73
2021/10/14 04:19:32;;;;;;;44.88;24.38;;;6.40;99.90;;;;;;4940978;29;20077;-72
2021/10/14 04:21:57;;;;;;;54.50;29.55;;;6.50;99.90;;;;;;4941785;29;20031;-73
2021/10/14 04:24:26;;;;;;;49.90;27.50;;;6.40;99.90;;;;;;4930361;29;20466;-73
2021/10/14 04:26:51;;;;;;;48.90;27.98;;;6.50;99.90;;;;;;4946805;29;20171;-72
2021/10/14 04:29:17;;;;;;;53.42;27.23;;;6.40;99.90;;;;;;4940837;29;20113;-72
2021/10/14 04:31:42;;;;;;;53.40;27.58;;;6.40;99.90;;;;;;4941250;29;20020;-72
2021/10/14 04:34:08;;;;;;;52.47;26.83;;;6.40;99.90;;;;;;4930352;29;20070;-74
2021/10/14 04:36:37;;;;;;;55.70;28.30;;;6.40;99.90;;;;;;4946955;29;20031;-73
2021/10/14 04:39:04;;;;;;;53.97;28.77;;;6.40;99.90;;;;;;4940832;29;20114;-73
2021/10/14 04:41:29;;;;;;;64.38;29.30;;;6.40;99.90;;;;;;4940631;29;20032;-73
2021/10/14 04:43:54;;;;;;;52.33;28.23;;;6.40;99.90;;;;;;4940851;29;20397;-73
2021/10/14 04:46:20;;;;;;;76.18;40.50;;;6.50;99.90;;;;;;4923710;29;20558;-76
2021/10/14 04:48:46;;;;;;;189.00;94.07;;;6.50;99.90;;;;;;4930064;29;20042;-76
2021/10/14 04:51:12;;;;;;;234.20;124.10;;;6.50;99.90;;;;;;4946819;29;20023;-73
2021/10/14 04:53:37;;;;;;;168.30;91.97;;;6.40;99.90;;;;;;4947533;29;20398;-72
2021/10/14 04:56:03;;;;;;;135.60;67.03;;;6.40;99.90;;;;;;4946815;29;20512;-73
2021/10/14 04:58:30;;;;;;;115.25;61.45;;;6.40;99.90;;;;;;4934604;29;20044;-73
2021/10/14 05:00:55;;;;;;;181.77;103.50;;;6.40;99.90;;;;;;4917187;29;20027;-74
2021/10/14 05:03:21;;;;;;;146.75;77.72;;;6.40;99.90;;;;;;4929962;29;20572;-74
2021/10/14 05:05:46;;;;;;;265.00;142.45;;;6.50;99.90;;;;;;4947288;29;20028;-73
2021/10/14 05:08:12;;;;;;;263.20;139.70;;;6.50;99.90;;;;;;4935309;29;20028;-74
2021/10/14 05:10:38;;;;;;;309.75;159.95;;;6.50;99.90;;;;;;4937915;29;20024;-73
2021/10/14 05:13:04;;;;;;;300.58;143.40;;;6.50;99.90;;;;;;4950674;29;20050;-74
2021/10/14 05:15:29;;;;;;;232.43;106.07;;;6.40;99.90;;;;;;4950175;29;20051;-73
2021/10/14 05:17:55;;;;;;;179.63;81.40;;;6.50;99.90;;;;;;4944021;29;20027;-74
2021/10/14 05:20:21;;;;;;;283.55;128.38;;;6.50;99.90;;;;;;4945492;29;20043;-73
2021/10/14 05:22:46;;;;;;;245.93;116.72;;;6.50;99.90;;;;;;4950428;29;20032;-72
2021/10/14 05:25:11;;;;;;;199.07;107.47;;;6.50;99.90;;;;;;4932272;29;20026;-73
2021/10/14 05:27:37;;;;;;;79.32;46.90;;;6.50;99.90;;;;;;4943901;29;20406;-73
2021/10/14 05:30:03;;;;;;;62.53;33.65;;;6.50;99.90;;;;;;4945369;29;20085;-72
2021/10/14 05:32:29;;;;;;;76.88;44.50;;;6.60;99.90;;;;;;4950240;29;20083;-73
2021/10/14 05:34:54;;;;;;;77.25;43.30;;;6.60;99.90;;;;;;4949448;29;20027;-73
2021/10/14 05:37:20;;;;;;;81.53;46.00;;;6.50;99.90;;;;;;4945075;29;20027;-73
2021/10/14 05:39:46;;;;;;;78.22;44.50;;;6.50;99.90;;;;;;4945628;29;20041;-75
2021/10/14 05:42:11;;;;;;;87.85;49.67;;;6.50;99.90;;;;;;4954938;29;20470;-73
2021/10/14 05:44:37;;;;;;;72.22;39.85;;;6.50;99.90;;;;;;4945315;29;20031;-73
2021/10/14 05:47:02;;;;;;;80.35;40.05;;;6.50;99.90;;;;;;4950318;29;20090;-72
2021/10/14 05:49:28;;;;;;;70.97;36.55;;;6.50;99.90;;;;;;4948302;29;20102;-71
2021/10/14 05:51:53;;;;;;;64.03;34.95;;;6.60;99.90;;;;;;4943210;29;20558;-72
2021/10/14 05:54:19;;;;;;;84.13;38.15;;;6.60;99.90;;;;;;4928553;29;20024;-73
2021/10/14 05:56:44;;;;;;;89.35;40.63;;;6.60;99.90;;;;;;4950020;29;20020;-73
2021/10/14 05:59:10;;;;;;;87.75;41.47;;;6.60;99.90;;;;;;4947645;29;20038;-73
2021/10/14 06:01:35;;;;;;;91.50;42.70;;;6.60;99.90;;;;;;4942997;29;20027;-73
2021/10/14 06:04:01;;;;;;;86.78;42.60;;;6.60;99.90;;;;;;4946031;29;20225;-75
2021/10/14 06:06:26;;;;;;;89.22;40.58;;;6.60;99.90;;;;;;4949947;29;20036;-72
2021/10/14 06:08:52;;;;;;;82.80;38.97;;;6.60;99.90;;;;;;4946598;29;20027;-73
2021/10/14 06:11:18;;;;;;;86.97;40.38;;;6.60;99.90;;;;;;4968805;28;20437;-73
2021/10/14 06:13:43;;;;;;;97.50;42.65;;;6.60;99.90;;;;;;4938845;29;20116;-73
2021/10/14 06:16:09;;;;;;;88.05;39.13;;;6.60;99.90;;;;;;4951255;29;20031;-73
2021/10/14 06:18:36;;;;;;;77.65;38.05;;;6.60;99.90;;;;;;4947785;29;20393;-72
2021/10/14 06:21:02;;;;;;;72.75;36.20;;;6.70;99.90;;;;;;4936806;28;20031;-77
2021/10/14 06:23:28;;;;;;;76.18;38.72;;;6.70;99.90;;;;;;4947986;29;20027;-73
2021/10/14 06:25:55;;;;;;;84.13;42.22;;;6.70;99.90;;;;;;4951043;29;20023;-73
2021/10/14 06:28:21;;;;;;;87.32;41.75;;;6.70;99.90;;;;;;4930401;29;20442;-73
2021/10/14 06:30:47;;;;;;;85.25;39.78;;;6.80;99.90;;;;;;4937727;29;20019;-73
2021/10/14 06:33:12;;;;;;;78.88;40.55;;;6.80;99.90;;;;;;4947995;29;20024;-73
2021/10/14 06:35:38;;;;;;;87.63;42.47;;;6.70;99.90;;;;;;4942835;28;20031;-73
2021/10/14 06:38:04;;;;;;;83.32;40.22;;;6.80;99.90;;;;;;4944206;29;20024;-73
2021/10/14 06:40:29;;;;;;;79.28;39.90;;;6.80;99.90;;;;;;4949174;29;20414;-73
2021/10/14 06:42:55;;;;;;;93.28;39.97;;;6.80;99.90;;;;;;4947550;29;20036;-73
2021/10/14 06:45:20;;;;;;;86.65;41.15;;;6.80;99.90;;;;;;4933500;29;20054;-72
2021/10/14 06:47:46;;;;;;;71.35;35.35;;;6.80;99.90;;;;;;4955383;29;20058;-73
2021/10/14 06:50:11;;;;;;;82.47;39.55;;;6.90;99.90;;;;;;4942502;29;20031;-72
2021/10/14 06:52:37;;;;;;;82.78;40.03;;;6.80;99.90;;;;;;4954830;29;20102;-72
2021/10/14 06:55:03;;;;;;;82.60;39.63;;;6.80;99.90;;;;;;4937402;29;20027;-73
2021/10/14 06:57:28;;;;;;;64.93;33.20;;;6.80;99.90;;;;;;4946752;29;20482;-73
2021/10/14 06:59:54;;;;;;;83.28;37.38;;;6.80;99.90;;;;;;4933511;29;20038;-73
2021/10/14 07:02:20;;;;;;;83.85;37.80;;;6.80;99.90;;;;;;4946588;29;20027;-73
2021/10/14 07:04:45;;;;;;;89.68;41.13;;;6.80;99.90;;;;;;4941701;29;20032;-73
2021/10/14 07:07:11;;;;;;;98.57;43.58;;;6.80;99.90;;;;;;4919763;29;20052;-73
2021/10/14 07:09:36;;;;;;;94.90;41.35;;;6.90;99.90;;;;;;4952855;29;20030;-72
2021/10/14 07:12:10;;;;;;;89.43;40.60;;;6.80;99.90;;;;;;4954781;29;20032;-72
2021/10/14 07:14:39;;;;;;;100.28;44.15;;;6.90;99.90;;;;;;4948753;29;20043;-73
2021/10/14 07:17:05;;;;;;;83.65;41.03;;;6.90;99.90;;;;;;4935027;29;20427;-73
2021/10/14 07:19:31;;;;;;;95.63;42.72;;;6.90;99.90;;;;;;4923594;29;20035;-73
2021/10/14 07:21:56;;;;;;;101.47;45.83;;;6.90;99.90;;;;;;4925276;29;20512;-73
2021/10/14 07:24:23;;;;;;;101.18;44.88;;;7.00;99.90;;;;;;4948268;29;20394;-73
2021/10/14 07:26:49;;;;;;;94.75;42.00;;;6.90;99.90;;;;;;4930181;29;20027;-73
2021/10/14 07:29:15;;;;;;;94.88;41.78;;;6.90;99.90;;;;;;4936287;29;20051;-72
2021/10/14 07:31:41;;;;;;;90.75;40.75;;;7.00;99.90;;;;;;4946949;28;20027;-73
2021/10/14 07:34:06;;;;;;;107.80;43.58;;;7.00;99.90;;;;;;4941863;29;20051;-73
2021/10/14 07:36:32;;;;;;;91.63;39.22;;;7.10;99.90;;;;;;4942593;29;20078;-73
2021/10/14 07:38:58;;;;;;;99.10;42.40;;;7.10;99.90;;;;;;4948202;29;20031;-73
2021/10/14 07:41:24;;;;;;;87.28;42.53;;;7.10;99.90;;;;;;4946767;29;20039;-73
2021/10/14 07:43:50;;;;;;;90.85;39.67;;;7.00;99.90;;;;;;4932018;29;20054;-73
2021/10/14 07:46:15;;;;;;;89.82;39.58;;;7.10;99.90;;;;;;4946794;29;20478;-73
2021/10/14 07:48:41;;;;;;;80.22;38.67;;;7.10;99.90;;;;;;4941321;29;20023;-73
2021/10/14 07:51:07;;;;;;;93.07;39.97;;;7.10;99.90;;;;;;4954170;29;20066;-73
2021/10/14 07:53:33;;;;;;;102.03;46.53;;;7.10;99.90;;;;;;4941245;29;20020;-73
2021/10/14 07:55:58;;;;;;;101.72;43.50;;;7.10;99.90;;;;;;4942864;29;20106;-73
2021/10/14 07:58:24;;;;;;;90.93;42.65;;;7.10;99.90;;;;;;4947627;29;20140;-73
2021/10/14 08:00:49;;;;;;;79.53;38.67;;;7.20;99.90;;;;;;4917804;29;20027;-73
2021/10/14 08:03:15;;;;;;;104.32;43.00;;;7.20;99.90;;;;;;4930534;29;20055;-74
2021/10/14 08:05:41;;;;;;;87.45;41.05;;;7.20;99.90;;;;;;4929211;29;20393;-73
2021/10/14 08:08:06;;;;;;;83.82;41.53;;;7.20;99.90;;;;;;4941375;29;20034;-73
2021/10/14 08:10:33;;;;;;;86.35;41.08;;;7.20;99.90;;;;;;4953667;28;20066;-73
2021/10/14 08:12:58;;;;;;;89.00;43.08;;;7.20;99.90;;;;;;4953846;29;20031;-73
2021/10/14 08:15:25;;;;;;;86.60;40.40;;;7.30;99.90;;;;;;4925462;29;20441;-73
2021/10/14 08:17:51;;;;;;;80.95;39.28;;;7.20;99.90;;;;;;4934735;29;20020;-73
2021/10/14 08:20:17;;;;;;;71.68;38.80;;;7.30;99.90;;;;;;4934783;29;20046;-73
2021/10/14 08:22:43;;;;;;;73.03;44.03;;;7.30;99.90;;;;;;4930057;29;20144;-73
2021/10/14 08:25:14;;;;;;;85.82;42.22;;;7.40;99.90;;;;;;4929687;29;20645;-73
2021/10/14 08:27:42;;;;;;;98.40;46.05;;;7.40;99.90;;;;;;4919350;29;20043;-73
2021/10/14 08:30:08;;;;;;;83.68;44.22;;;7.50;99.90;;;;;;4946329;29;20571;-73
2021/10/14 08:32:34;;;;;;;76.40;42.13;;;7.50;99.90;;;;;;4947161;28;20103;-73
2021/10/14 08:35:00;;;;;;;83.03;45.20;;;7.50;99.90;;;;;;4946929;29;20067;-73
2021/10/14 08:37:26;;;;;;;85.38;44.88;;;7.50;99.90;;;;;;4940705;29;20043;-73
2021/10/14 08:39:53;;;;;;;79.40;43.38;;;7.50;99.90;;;;;;4927135;29;20087;-72
2021/10/14 08:42:20;;;;;;;89.53;44.50;;;7.50;99.90;;;;;;4940565;28;20023;-72
2021/10/14 08:44:46;;;;;;;80.60;39.90;;;7.60;99.90;;;;;;4957105;29;20387;-73
2021/10/14 08:47:13;;;;;;;70.70;37.65;;;7.60;99.90;;;;;;4940280;29;20445;-73
2021/10/14 08:49:43;;;;;;;95.40;43.70;;;7.60;99.90;;;;;;4957510;29;20034;-73
2021/10/14 08:52:09;;;;;;;67.10;39.22;;;7.60;99.90;;;;;;4932890;29;20083;-73
2021/10/14 08:54:34;;;;;;;91.55;46.53;;;7.60;99.90;;;;;;4939310;29;20509;-73
2021/10/14 08:57:00;;;;;;;67.30;37.00;;;7.60;99.90;;;;;;4950240;29;20035;-74
2021/10/14 08:59:25;;;;;;;85.43;39.60;;;7.60;99.90;;;;;;4933630;29;20028;-73
2021/10/14 09:02:07;;;;;;;83.82;43.80;;;7.70;99.90;;;;;;4951473;29;20035;-73
2021/10/14 09:04:32;;;;;;;86.43;47.72;;;7.80;99.90;;;;;;4957366;29;20497;-73
2021/10/14 09:07:18;;;;;;;83.22;44.45;;;7.80;99.90;;;;;;4948049;29;20032;-73
2021/10/14 09:09:45;;;;;;;73.93;37.97;;;7.80;99.90;;;;;;4956148;29;20061;-73
2021/10/14 09:12:13;;;;;;;72.82;37.75;;;7.80;99.90;;;;;;4945415;29;20023;-73
2021/10/14 09:15:07;;;;;;;83.40;40.13;;;7.80;99.90;;;;;;4950793;29;20036;-73
2021/10/14 09:17:43;;;;;;;74.28;38.25;;;7.80;99.90;;;;;;4950639;29;20047;-73
2021/10/14 09:20:25;;;;;;;82.53;40.58;;;7.80;99.90;;;;;;4948138;28;20031;-73
2021/10/14 09:23:03;;;;;;;84.38;39.92;;;7.90;99.90;;;;;;4943898;29;20032;-73
2021/10/14 09:25:49;;;;;;;74.10;38.72;;;7.90;99.90;;;;;;4944070;29;20107;-73
2021/10/14 09:28:22;;;;;;;94.32;47.83;;;7.90;99.90;;;;;;4946297;29;20035;-73
2021/10/14 09:30:50;;;;;;;83.05;43.78;;;8.00;99.90;;;;;;4933039;29;20034;-73
2021/10/14 09:33:43;;;;;;;73.15;39.95;;;7.90;99.90;;;;;;4949651;29;20486;-73
2021/10/14 09:36:14;;;;;;;77.47;41.85;;;8.00;99.90;;;;;;4946757;29;20046;-73
2021/10/14 09:38:42;;;;;;;68.47;37.35;;;8.00;99.90;;;;;;4943552;29;20037;-72
2021/10/14 09:41:10;;;;;;;66.93;36.55;;;8.00;99.90;;;;;;4954185;28;20031;-73
2021/10/14 09:43:37;;;;;;;67.22;37.92;;;8.10;99.90;;;;;;4926373;29;20045;-72
2021/10/14 09:46:03;;;;;;;77.85;39.17;;;8.10;99.90;;;;;;4947827;29;20684;-72
2021/10/14 09:48:28;;;;;;;72.97;38.58;;;8.10;99.90;;;;;;4949135;28;20032;-73
2021/10/14 09:50:54;;;;;;;61.05;37.83;;;8.10;99.90;;;;;;4944407;29;20027;-72
2021/10/14 09:53:21;;;;;;;75.25;40.42;;;8.10;99.90;;;;;;4954989;28;20097;-72
2021/10/14 09:55:51;;;;;;;66.32;35.97;;;8.10;99.90;;;;;;4956079;28;20023;-72
2021/10/14 09:58:17;;;;;;;66.18;35.80;;;8.20;99.90;;;;;;4956041;29;20027;-72
2021/10/14 10:00:44;;;;;;;63.45;36.92;;;8.20;99.90;;;;;;4956002;29;20023;-72
2021/10/14 10:03:17;;;;;;;59.85;35.03;;;8.20;99.90;;;;;;4956150;29;20027;-72
2021/10/14 10:05:47;;;;;;;56.10;33.03;;;8.20;99.90;;;;;;4938880;29;20026;-72
2021/10/14 10:08:25;;;;;;;56.35;32.75;;;8.10;99.90;;;;;;4955912;28;20130;-72
2021/10/14 10:10:51;;;;;;;48.38;30.48;;;8.20;99.90;;;;;;4968901;28;20448;-72
2021/10/14 10:13:18;;;;;;;49.60;30.95;;;8.10;99.90;;;;;;4955734;29;20085;-72
2021/10/14 10:15:45;;;;;;;54.55;33.40;;;8.20;99.90;;;;;;4954594;29;20074;-73
2021/10/14 10:18:26;;;;;;;53.97;32.25;;;8.30;99.90;;;;;;4946077;28;20023;-72
2021/10/14 10:20:56;;;;;;;60.08;34.85;;;8.20;99.90;;;;;;4935733;29;20024;-72
2021/10/14 10:23:43;;;;;;;52.88;33.08;;;8.30;99.90;;;;;;4930000;29;20023;-72
2021/10/14 10:26:34;;;;;;;55.70;33.00;;;8.40;99.90;;;;;;4938648;29;20585;-72
2021/10/14 10:29:06;;;;;;;60.75;33.42;;;8.40;99.90;;;;;;4938288;29;20086;-72
2021/10/14 10:31:54;;;;;;;46.58;30.85;;;8.40;99.90;;;;;;4941407;28;20113;-72
2021/10/14 10:34:44;;;;;;;48.95;31.48;;;8.40;99.90;;;;;;4963470;28;20402;-72
2021/10/14 10:37:12;;;;;;;54.58;32.55;;;8.50;99.90;;;;;;4966084;28;20041;-72
2021/10/14 10:39:45;;;;;;;49.30;31.17;;;8.50;99.90;;;;;;4966702;28;20022;-72
2021/10/14 10:42:29;;;;;;;49.35;30.60;;;8.50;99.90;;;;;;4947150;28;20019;-72
2021/10/14 10:45:05;;;;;;;51.03;32.20;;;8.50;99.90;;;;;;4965994;28;20027;-72
2021/10/14 10:47:55;;;;;;;48.40;32.05;;;8.60;99.90;;;;;;4966124;28;20027;-72
2021/10/14 10:50:25;;;;;;;43.50;30.00;;;8.50;99.90;;;;;;4948612;28;20118;-72
2021/10/14 10:53:23;;;;;;;44.15;31.00;;;8.50;99.90;;;;;;4966032;28;20090;-72
2021/10/14 10:55:53;;;;;;;48.45;30.73;;;8.50;99.90;;;;;;4962462;28;20101;-72
2021/10/14 10:58:31;;;;;;;47.10;30.50;;;8.50;99.90;;;;;;4946083;28;20556;-72
2021/10/14 11:00:57;;;;;;;47.60;29.55;;;8.40;99.90;;;;;;4966085;28;20023;-72
2021/10/14 11:03:28;;;;;;;52.92;32.83;;;8.50;99.90;;;;;;4965433;28;20050;-72
2021/10/14 11:06:12;;;;;;;46.90;32.17;;;8.60;99.90;;;;;;4965708;28;20498;-72
2021/10/14 11:08:38;;;;;;;47.00;30.02;;;8.60;99.90;;;;;;4960985;28;20099;-72
2021/10/14 11:11:06;;;;;;;47.67;31.80;;;8.60;99.90;;;;;;4965339;28;20027;-72
2021/10/14 11:13:37;;;;;;;49.17;31.33;;;8.60;99.90;;;;;;4963761;28;20054;-72
2021/10/14 11:16:06;;;;;;;50.88;31.27;;;8.60;99.90;;;;;;4967511;28;20016;-72
2021/10/14 11:18:35;;;;;;;46.88;32.08;;;8.50;99.90;;;;;;4948756;28;20027;-72
2021/10/14 11:21:03;;;;;;;49.70;32.17;;;8.60;99.90;;;;;;4964292;28;20064;-72
2021/10/14 11:23:31;;;;;;;49.72;30.60;;;8.70;99.90;;;;;;4963084;28;20166;-73
2021/10/14 11:26:16;;;;;;;49.88;31.75;;;8.60;99.90;;;;;;4937782;29;20038;-72
2021/10/14 11:29:07;;;;;;;43.92;30.02;;;8.60;99.90;;;;;;4952840;28;20393;-72
2021/10/14 11:31:41;;;;;;;47.78;31.48;;;8.50;99.90;;;;;;4941100;28;20114;-73
2021/10/14 11:34:13;;;;;;;46.13;30.05;;;8.60;99.90;;;;;;4961184;28;20051;-72
2021/10/14 11:36:48;;;;;;;47.67;32.00;;;8.60;99.90;;;;;;4938470;29;20047;-71
2021/10/14 11:39:14;;;;;;;46.10;30.20;;;8.70;99.90;;;;;;4960623;28;20023;-72
2021/10/14 11:41:41;;;;;;;47.03;30.63;;;8.70;99.90;;;;;;4966774;28;20027;-72
2021/10/14 11:44:09;;;;;;;40.53;27.58;;;8.70;99.90;;;;;;4962116;28;20118;-71
2021/10/14 11:46:37;;;;;;;36.25;26.85;;;8.60;99.90;;;;;;4939959;28;20030;-71
2021/10/14 11:49:08;;;;;;;40.92;26.92;;;8.60;99.90;;;;;;4951168;28;20027;-71
2021/10/14 11:51:34;;;;;;;42.17;28.23;;;8.60;99.90;;;;;;4956073;28;20023;-72
2021/10/14 11:54:07;;;;;;;33.40;25.10;;;8.70;99.90;;;;;;4951864;28;20018;-72
2021/10/14 11:56:49;;;;;;;40.60;27.40;;;8.60;99.90;;;;;;4950629;29;20029;-72
2021/10/14 11:59:26;;;;;;;43.38;29.63;;;8.70;99.90;;;;;;4955390;28;20058;-73
2021/10/14 12:02:07;;;;;;;44.13;29.02;;;8.70;99.90;;;;;;4954032;28;20505;-73
2021/10/14 12:04:40;;;;;;;34.78;25.40;;;8.70;99.90;;;;;;4953995;29;20441;-72
2021/10/14 12:07:06;;;;;;;41.22;28.17;;;8.70;99.90;;;;;;4953915;29;20152;-73
2021/10/14 12:09:32;;;;;;;41.45;30.80;;;8.70;99.90;;;;;;4953732;29;20033;-73
2021/10/14 12:12:00;;;;;;;76.40;53.72;;;8.70;99.90;;;;;;4953610;29;20493;-72
2021/10/14 12:14:27;;;;;;;75.70;56.80;;;8.80;99.90;;;;;;4950402;29;20479;-73
2021/10/14 12:17:16;;;;;;;59.83;41.75;;;8.80;99.90;;;;;;4954386;28;20088;-73
2021/10/14 12:19:46;;;;;;;54.25;41.95;;;8.90;99.90;;;;;;4965980;28;20509;-73
2021/10/14 12:22:18;;;;;;;65.85;44.60;;;8.90;99.90;;;;;;4953515;28;20029;-73
2021/10/14 12:24:58;;;;;;;49.97;33.80;;;9.00;99.90;;;;;;4961047;28;20030;-73
2021/10/14 12:27:42;;;;;;;50.53;34.13;;;9.00;99.90;;;;;;4936180;29;20031;-73
2021/10/14 12:30:25;;;;;;;52.05;35.70;;;9.00;99.90;;;;;;4961890;28;20548;-73
2021/10/14 12:32:53;;;;;;;49.90;33.97;;;9.00;99.90;;;;;;4941303;29;20058;-73
2021/10/14 12:35:23;;;;;;;46.10;29.23;;;8.90;99.90;;;;;;4953910;29;20020;-73
2021/10/14 12:38:02;;;;;;;41.88;29.25;;;9.00;99.90;;;;;;4953543;29;20452;-72
2021/10/14 12:40:28;;;;;;;43.40;31.08;;;9.00;99.90;;;;;;4924034;29;20028;-73